Terminal Aerodrome Forecast
Issued by NWS Albany, NY

Home | Current Version | Previous Version | Text Only | Print | Product List | Glossary On
Versions: 1 2 3 4 5 6 7 8 9 10 11 12 13 14 15 16 17 18 19 20 21 22 23 24
000
FTUS41 KALY 301354 AAC
TAFPOU
TAF AMD
KPOU 301354Z 3014/3112 VRB04KT P6SM VCSH SCT006 OVC070
      TEMPO 3014/3016 BKN006
     FM301600 22006KT P6SM VCSH SCT035 SCT150
      TEMPO 3018/3022 4SM -TSRA BR BKN035CB
     FM310000 VRB03KT 6SM BR VCSH BKN035 BKN050
     FM310600 00000KT 5SM BR BKN080=

USA.gov is the U.S. government's official web portal to all federal, state and local government web resources and services.